Fuengirola, Spain
Current Conditions -  °F | °C
As of 3:30 AM on Tuesday 23 Dec 2014 (Local Time) from LEMG Reporting Station
Broken Clouds Broken Clouds  
Wind Chill: 59°   Ceiling: 4500
Heat Index: 59°   Visibility: 6mi
Dew Point: 50°   Wind: 10mph
Humidity: 72%   Direction: 110°ESE
Pressure: 30.39"   Gusts: NA
Location:  36.54°N, 4.62°W
Report Text: LEMG 230230Z 11009KT 9999 FEW020 BKN045 15/10 Q1029 NOSIG
Loading
Personal Weather Stations






























Interactive Weather Map New forecast layout! Learn more

10-Day Weather Forecast

Advertisements
Track Severe Weather on mobile